createdAt,value
2023-02-09T00:01:13.734Z,-5.16
2023-02-09T00:03:41.929Z,-5.15
2023-02-09T00:06:12.491Z,-5.24
2023-02-09T00:08:40.072Z,-5.31
2023-02-09T00:11:08.293Z,-5.36
2023-02-09T00:13:36.436Z,-5.41
2023-02-09T00:16:08.500Z,-5.51
2023-02-09T00:18:36.393Z,-5.53
2023-02-09T00:21:06.048Z,-5.56
2023-02-09T00:23:38.210Z,-5.63
2023-02-09T00:26:08.133Z,-5.62
2023-02-09T00:28:36.048Z,-5.60
2023-02-09T00:31:08.521Z,-5.58
2023-02-09T00:33:38.823Z,-5.57
2023-02-09T00:36:11.702Z,-5.49
2023-02-09T00:38:39.941Z,-5.47
2023-02-09T00:41:07.739Z,-5.48
2023-02-09T00:43:37.071Z,-5.48
2023-02-09T00:46:04.868Z,-5.54
2023-02-09T00:48:34.236Z,-5.48
2023-02-09T00:51:02.118Z,-5.50
2023-02-09T00:53:30.811Z,-5.48
2023-02-09T00:55:58.210Z,-5.48
2023-02-09T00:58:28.375Z,-5.52
2023-02-09T01:00:57.827Z,-5.61
2023-02-09T01:03:25.138Z,-5.68
2023-02-09T01:06:01.078Z,-5.75
2023-02-09T01:08:28.917Z,-5.84
2023-02-09T01:10:57.396Z,-5.83
2023-02-09T01:13:25.365Z,-5.87
2023-02-09T01:15:52.762Z,-5.91
2023-02-09T01:18:24.966Z,-5.96
2023-02-09T01:20:52.464Z,-5.95
2023-02-09T01:23:21.278Z,-6.00
2023-02-09T01:25:48.656Z,-6.00
2023-02-09T01:28:17.670Z,-6.00
2023-02-09T01:30:45.583Z,-6.02
2023-02-09T01:33:14.780Z,-6.04
2023-02-09T01:35:42.106Z,-6.06
2023-02-09T01:38:09.462Z,-6.04
2023-02-09T01:40:39.937Z,-6.12
2023-02-09T01:43:11.944Z,-6.03
2023-02-09T01:45:44.683Z,-6.05
2023-02-09T01:48:16.995Z,-6.11
2023-02-09T01:50:47.330Z,-6.08
2023-02-09T01:53:15.433Z,-6.04
2023-02-09T01:55:49.991Z,-6.12
2023-02-09T01:58:21.065Z,-6.14
2023-02-09T02:00:49.658Z,-6.22
2023-02-09T02:03:19.986Z,-6.32
2023-02-09T02:05:51.594Z,-6.32
2023-02-09T02:08:27.952Z,-6.36
2023-02-09T02:10:57.262Z,-6.30
2023-02-09T02:13:24.762Z,-6.30
2023-02-09T02:16:04.832Z,-6.25
2023-02-09T02:18:57.064Z,-6.30
2023-02-09T02:21:47.009Z,-6.38
2023-02-09T02:24:52.717Z,-6.45
2023-02-09T02:27:32.057Z,-6.47
2023-02-09T02:30:24.352Z,-6.45
2023-02-09T02:33:13.319Z,-6.45
2023-02-09T02:35:48.263Z,-6.47
2023-02-09T02:38:19.595Z,-6.47
2023-02-09T02:40:57.512Z,-6.48
2023-02-09T02:43:40.262Z,-6.57
2023-02-09T02:46:13.951Z,-6.63
2023-02-09T02:48:48.097Z,-6.64
2023-02-09T02:51:20.253Z,-6.68
2023-02-09T02:53:52.826Z,-6.75
2023-02-09T02:56:25.501Z,-6.81
2023-02-09T02:58:56.853Z,-6.80
2023-02-09T03:01:28.367Z,-6.84
2023-02-09T03:03:58.764Z,-6.83
2023-02-09T03:06:26.067Z,-6.85
2023-02-09T03:08:55.137Z,-6.86
2023-02-09T03:11:27.888Z,-6.83
2023-02-09T03:14:23.810Z,-6.86
2023-02-09T03:17:04.601Z,-6.88
2023-02-09T03:19:43.428Z,-6.83
2023-02-09T03:22:18.373Z,-6.76
2023-02-09T03:24:53.307Z,-6.80
2023-02-09T03:27:25.135Z,-6.81
2023-02-09T03:29:57.253Z,-6.81
2023-02-09T03:32:25.876Z,-6.84
2023-02-09T03:34:55.455Z,-6.84
2023-02-09T03:37:23.537Z,-6.88
2023-02-09T03:39:50.883Z,-6.92
2023-02-09T03:42:18.245Z,-6.99
2023-02-09T03:44:45.627Z,-6.92
2023-02-09T03:47:13.105Z,-6.80
2023-02-09T03:49:42.867Z,-6.61
2023-02-09T03:52:13.848Z,-6.48
2023-02-09T03:54:41.584Z,-6.42
2023-02-09T03:57:10.041Z,-6.34
2023-02-09T03:59:47.279Z,-6.31
2023-02-09T04:02:22.269Z,-6.33
2023-02-09T04:04:49.590Z,-6.47
2023-02-09T04:07:18.436Z,-6.57
2023-02-09T04:09:45.936Z,-6.68
2023-02-09T04:12:13.316Z,-6.74
2023-02-09T04:14:40.732Z,-6.82
2023-02-09T04:17:08.043Z,-6.90
2023-02-09T04:19:35.539Z,-6.92
2023-02-09T04:22:03.291Z,-7.01
2023-02-09T04:24:32.026Z,-7.01
2023-02-09T04:26:59.385Z,-7.06
2023-02-09T04:29:27.067Z,-7.10
2023-02-09T04:31:54.546Z,-7.13
2023-02-09T04:34:21.882Z,-7.18
2023-02-09T04:36:49.296Z,-7.19
2023-02-09T04:39:16.936Z,-7.23
2023-02-09T04:41:45.759Z,-7.26
2023-02-09T04:44:14.420Z,-7.25
2023-02-09T04:46:42.134Z,-7.12
2023-02-09T04:49:10.182Z,-7.10
2023-02-09T04:51:37.602Z,-7.10
2023-02-09T04:54:05.049Z,-7.13
2023-02-09T04:56:32.656Z,-7.14
2023-02-09T04:59:01.432Z,-7.11
2023-02-09T05:01:31.209Z,-7.11
2023-02-09T05:03:58.790Z,-7.09
2023-02-09T05:06:28.581Z,-7.07
2023-02-09T05:08:58.482Z,-7.05
2023-02-09T05:11:25.842Z,-7.03
2023-02-09T05:13:53.346Z,-7.09
2023-02-09T05:16:27.538Z,-7.14
2023-02-09T05:18:54.940Z,-7.20
2023-02-09T05:21:22.309Z,-7.20
2023-02-09T05:23:49.643Z,-7.26
2023-02-09T05:26:16.978Z,-7.29
2023-02-09T05:28:44.308Z,-7.31
2023-02-09T05:31:11.788Z,-7.35
2023-02-09T05:33:40.529Z,-7.41
2023-02-09T05:36:08.892Z,-7.40
2023-02-09T05:38:36.502Z,-7.45
2023-02-09T05:41:08.692Z,-7.44
2023-02-09T05:43:38.435Z,-7.42
2023-02-09T05:46:08.276Z,-7.49
2023-02-09T05:48:35.970Z,-7.52
2023-02-09T05:51:05.105Z,-7.53
2023-02-09T05:53:32.425Z,-7.57
2023-02-09T05:56:00.515Z,-7.60
2023-02-09T05:58:30.474Z,-7.71
2023-02-09T06:00:57.833Z,-7.67
2023-02-09T06:03:25.316Z,-7.74
2023-02-09T06:05:55.584Z,-7.72
2023-02-09T06:08:24.258Z,-7.73
2023-02-09T06:10:51.706Z,-7.78
2023-02-09T06:13:19.028Z,-7.78
2023-02-09T06:15:46.363Z,-7.80
2023-02-09T06:18:13.746Z,-7.82
2023-02-09T06:20:41.030Z,-7.84
2023-02-09T06:23:08.449Z,-7.87
2023-02-09T06:25:41.146Z,-7.89
2023-02-09T06:28:11.172Z,-7.91
2023-02-09T06:30:41.307Z,-7.93
2023-02-09T06:33:08.826Z,-7.95
2023-02-09T06:35:36.240Z,-7.89
2023-02-09T06:38:03.803Z,-7.90
2023-02-09T06:40:31.253Z,-7.91
2023-02-09T06:43:00.114Z,-7.94
2023-02-09T06:45:27.547Z,-7.94
2023-02-09T06:47:55.000Z,-7.93
2023-02-09T06:50:22.648Z,-7.94
2023-02-09T06:52:52.524Z,-7.94
2023-02-09T06:55:22.501Z,-7.94
2023-02-09T06:57:49.859Z,-7.93
2023-02-09T07:00:19.437Z,-7.96
2023-02-09T07:02:56.568Z,-7.94
2023-02-09T07:05:24.074Z,-7.92
2023-02-09T07:07:51.883Z,-7.94
2023-02-09T07:10:19.609Z,-7.89
2023-02-09T07:12:46.964Z,-7.84
2023-02-09T07:15:16.111Z,-7.78
2023-02-09T07:17:44.928Z,-7.69
2023-02-09T07:20:12.903Z,-7.62
2023-02-09T07:22:41.831Z,-7.52
2023-02-09T07:25:12.292Z,-7.40
2023-02-09T07:27:43.444Z,-7.31
2023-02-09T07:30:16.422Z,-7.19
2023-02-09T07:32:47.804Z,-7.07
2023-02-09T07:35:15.379Z,-6.94
2023-02-09T07:37:42.746Z,-6.87
2023-02-09T07:40:11.087Z,-6.72
2023-02-09T07:42:38.402Z,-6.64
2023-02-09T07:45:09.821Z,-6.51
2023-02-09T07:47:37.604Z,-6.41
2023-02-09T07:50:08.184Z,-6.28
2023-02-09T07:52:35.583Z,-6.14
2023-02-09T07:55:03.338Z,-5.96
2023-02-09T07:57:33.565Z,-5.80
2023-02-09T08:00:03.983Z,-5.70
2023-02-09T08:02:35.684Z,-5.58
2023-02-09T08:05:03.699Z,-5.41
2023-02-09T08:07:32.323Z,-5.37
2023-02-09T08:09:59.594Z,-5.19
2023-02-09T08:12:30.373Z,-5.05
2023-02-09T08:14:57.827Z,-4.92
2023-02-09T08:17:25.027Z,-4.78
2023-02-09T08:19:55.716Z,-4.64
2023-02-09T08:22:25.336Z,-4.50
2023-02-09T08:24:54.550Z,-4.36
2023-02-09T08:27:33.562Z,-4.18
2023-02-09T08:30:02.149Z,-3.98
2023-02-09T08:32:29.501Z,-3.87
2023-02-09T08:34:56.843Z,-3.73
2023-02-09T08:37:24.280Z,-3.62
2023-02-09T08:39:51.691Z,-3.48
2023-02-09T08:42:23.163Z,-3.32
2023-02-09T08:44:50.913Z,-3.25
2023-02-09T08:47:18.409Z,-3.14
2023-02-09T08:49:45.845Z,-2.96
2023-02-09T08:52:16.370Z,-2.82
2023-02-09T08:54:46.435Z,-2.67
2023-02-09T08:57:16.238Z,-2.55
2023-02-09T08:59:44.965Z,-2.45
2023-02-09T09:02:15.398Z,-2.41
2023-02-09T09:04:42.960Z,-2.25
2023-02-09T09:07:10.405Z,-2.18
2023-02-09T09:09:37.784Z,-2.07
2023-02-09T09:12:05.467Z,-1.97
2023-02-09T09:14:35.967Z,-1.91
2023-02-09T09:17:06.362Z,-1.87
2023-02-09T09:19:36.570Z,-1.93
2023-02-09T09:22:03.900Z,-1.85
2023-02-09T09:24:31.540Z,-1.66
2023-02-09T09:26:58.902Z,-1.61
2023-02-09T09:29:28.144Z,-1.57
2023-02-09T09:31:55.655Z,-1.52
2023-02-09T09:34:25.755Z,-1.48
2023-02-09T09:36:54.821Z,-1.50
2023-02-09T09:39:22.207Z,-1.38
2023-02-09T09:41:53.899Z,-1.31
2023-02-09T09:44:31.249Z,-1.22
2023-02-09T09:47:03.016Z,-1.07
2023-02-09T09:49:32.393Z,-0.94
2023-02-09T09:52:04.210Z,-0.84
2023-02-09T09:54:33.235Z,-0.76
2023-02-09T09:57:01.087Z,-0.60
2023-02-09T09:59:32.956Z,-0.55
2023-02-09T10:02:14.022Z,-0.50
2023-02-09T10:04:43.031Z,-0.45
2023-02-09T10:07:17.972Z,-0.45
2023-02-09T10:09:52.071Z,-0.42
2023-02-09T10:12:32.171Z,-0.28
2023-02-09T10:14:59.973Z,-0.27
2023-02-09T10:17:27.449Z,-0.12
2023-02-09T10:20:06.580Z,-0.10
2023-02-09T10:22:38.142Z,0.01
2023-02-09T10:25:39.002Z,0.03
2023-02-09T10:28:18.353Z,0.12
2023-02-09T10:30:48.114Z,0.15
2023-02-09T10:33:15.882Z,0.09
2023-02-09T10:35:49.028Z,0.08
2023-02-09T10:38:19.720Z,0.19
2023-02-09T10:40:50.657Z,0.28
2023-02-09T10:43:24.086Z,0.14
2023-02-09T10:45:54.914Z,0.21
2023-02-09T10:48:24.192Z,0.22
2023-02-09T10:50:59.216Z,0.37
2023-02-09T10:53:31.603Z,0.44
2023-02-09T10:56:02.026Z,0.36
2023-02-09T10:58:32.953Z,0.40
2023-02-09T11:01:12.926Z,0.56
2023-02-09T11:03:57.322Z,0.71
2023-02-09T11:06:26.746Z,0.81
2023-02-09T11:08:59.757Z,0.97
2023-02-09T11:11:31.172Z,1.03
2023-02-09T11:14:02.352Z,1.06
2023-02-09T11:17:07.286Z,1.11
2023-02-09T11:20:04.615Z,1.16
2023-02-09T11:22:57.872Z,1.17
2023-02-09T11:25:28.062Z,1.21
2023-02-09T11:28:11.196Z,1.32
2023-02-09T11:31:00.107Z,1.45
2023-02-09T11:33:41.071Z,1.33
2023-02-09T11:36:23.632Z,1.54
2023-02-09T11:39:00.405Z,1.51
2023-02-09T11:41:31.216Z,1.49
2023-02-09T11:44:02.488Z,1.60
2023-02-09T11:46:34.171Z,1.59
2023-02-09T11:49:07.252Z,1.65
2023-02-09T11:51:38.956Z,1.77
2023-02-09T11:54:12.489Z,1.90
2023-02-09T11:56:44.263Z,1.93
2023-02-09T11:59:16.888Z,1.98
2023-02-09T12:01:49.983Z,2.07
2023-02-09T12:04:21.257Z,2.10
2023-02-09T12:06:51.783Z,2.17
2023-02-09T12:09:45.897Z,2.02
2023-02-09T12:12:23.948Z,2.07
2023-02-09T12:15:00.225Z,2.18
2023-02-09T12:17:36.626Z,2.27
2023-02-09T12:20:05.771Z,2.23
2023-02-09T12:22:52.169Z,2.16
2023-02-09T12:25:31.939Z,2.20
2023-02-09T12:28:17.684Z,2.23
2023-02-09T12:30:59.789Z,2.36
2023-02-09T12:33:32.139Z,2.29
2023-02-09T12:36:02.586Z,2.36
2023-02-09T12:39:06.196Z,2.32
2023-02-09T12:42:07.146Z,2.28
2023-02-09T12:44:55.820Z,2.38
2023-02-09T12:47:46.746Z,2.46
2023-02-09T12:50:35.145Z,2.57
2023-02-09T12:53:45.297Z,2.54
2023-02-09T12:56:33.360Z,2.69
2023-02-09T12:59:18.332Z,2.63
2023-02-09T13:02:23.840Z,2.59
2023-02-09T13:05:01.798Z,2.59
2023-02-09T13:07:40.320Z,2.63
2023-02-09T13:10:20.242Z,2.67
2023-02-09T13:12:52.911Z,2.56
2023-02-09T13:15:26.605Z,2.57
2023-02-09T13:18:24.231Z,2.50
2023-02-09T13:21:12.973Z,2.45
2023-02-09T13:23:53.947Z,2.49
2023-02-09T13:26:28.582Z,2.50
2023-02-09T13:29:20.405Z,2.33
2023-02-09T13:32:05.910Z,2.42
2023-02-09T13:34:39.881Z,2.39
2023-02-09T13:37:20.912Z,2.47
2023-02-09T13:39:55.139Z,2.24
2023-02-09T13:42:24.479Z,2.30
2023-02-09T13:44:54.005Z,2.22
2023-02-09T13:47:31.984Z,2.28
2023-02-09T13:50:03.675Z,2.07
2023-02-09T13:52:38.778Z,2.13
2023-02-09T13:55:11.731Z,2.28
2023-02-09T13:57:42.181Z,2.28
2023-02-09T14:00:27.491Z,2.21
2023-02-09T14:02:58.512Z,2.16
2023-02-09T14:05:36.852Z,2.05
2023-02-09T14:08:07.701Z,2.00
2023-02-09T14:10:43.292Z,2.02
2023-02-09T14:13:22.033Z,2.09
2023-02-09T14:15:56.260Z,2.08
2023-02-09T14:18:41.208Z,2.07
2023-02-09T14:21:21.936Z,1.96
2023-02-09T14:24:08.712Z,1.98
2023-02-09T14:26:49.820Z,2.05
2023-02-09T14:29:24.905Z,2.08
2023-02-09T14:32:00.370Z,2.11
2023-02-09T14:34:35.830Z,2.12
2023-02-09T14:37:29.324Z,2.11
2023-02-09T14:39:58.725Z,2.07
2023-02-09T14:42:26.748Z,2.06
2023-02-09T14:44:56.118Z,1.95
2023-02-09T14:47:37.619Z,1.93
2023-02-09T14:50:06.340Z,1.92
2023-02-09T14:52:35.249Z,1.97
2023-02-09T14:55:06.577Z,1.95
2023-02-09T14:57:35.563Z,1.95
2023-02-09T15:00:18.202Z,1.92
2023-02-09T15:02:46.236Z,1.90
2023-02-09T15:05:16.586Z,1.84
2023-02-09T15:07:54.838Z,1.80
2023-02-09T15:10:28.429Z,1.77
2023-02-09T15:12:56.176Z,1.64
2023-02-09T15:15:25.209Z,1.59
2023-02-09T15:17:53.286Z,1.59
2023-02-09T15:20:24.621Z,1.55
2023-02-09T15:22:54.733Z,1.51
2023-02-09T15:25:23.591Z,1.47
2023-02-09T15:27:57.493Z,1.28
2023-02-09T15:30:30.545Z,1.09
2023-02-09T15:33:12.020Z,1.00
2023-02-09T15:35:47.235Z,0.86
2023-02-09T15:38:17.320Z,0.75
2023-02-09T15:40:47.425Z,0.56
2023-02-09T15:43:20.319Z,0.48
2023-02-09T15:45:47.879Z,0.39
2023-02-09T15:48:15.460Z,0.29
2023-02-09T15:50:47.903Z,0.19
2023-02-09T15:53:18.945Z,0.15
2023-02-09T15:55:47.003Z,0.01
2023-02-09T15:58:18.447Z,-0.03
2023-02-09T16:00:48.139Z,-0.14
2023-02-09T16:03:20.318Z,-0.25
2023-02-09T16:05:50.477Z,-0.33
2023-02-09T16:08:23.931Z,-0.49
2023-02-09T16:10:51.795Z,-0.55
2023-02-09T16:13:20.697Z,-0.62
2023-02-09T16:15:48.615Z,-0.72
2023-02-09T16:18:16.174Z,-0.79
2023-02-09T16:20:46.950Z,-0.86
2023-02-09T16:23:24.503Z,-0.95
2023-02-09T16:25:53.786Z,-1.05
2023-02-09T16:28:21.941Z,-1.12
2023-02-09T16:30:51.981Z,-1.17
2023-02-09T16:33:20.137Z,-1.29
2023-02-09T16:35:52.418Z,-1.35
2023-02-09T16:38:22.940Z,-1.39
2023-02-09T16:40:50.735Z,-1.49
2023-02-09T16:43:18.956Z,-1.57
2023-02-09T16:46:00.897Z,-1.63
2023-02-09T16:48:32.516Z,-1.74
2023-02-09T16:51:00.040Z,-1.77
2023-02-09T16:53:35.556Z,-1.84
2023-02-09T16:56:05.425Z,-1.87
2023-02-09T16:58:33.316Z,-1.95
2023-02-09T17:01:01.193Z,-2.02
2023-02-09T17:03:33.964Z,-2.11
2023-02-09T17:06:02.888Z,-2.17
2023-02-09T17:08:34.157Z,-2.23
2023-02-09T17:11:03.683Z,-2.32
2023-02-09T17:13:37.823Z,-2.33
2023-02-09T17:16:07.387Z,-2.37
2023-02-09T17:18:39.248Z,-2.42
2023-02-09T17:21:07.315Z,-2.47
2023-02-09T17:23:35.976Z,-2.53
2023-02-09T17:26:07.274Z,-2.57
2023-02-09T17:28:36.618Z,-2.65
2023-02-09T17:31:17.265Z,-2.67
2023-02-09T17:33:48.378Z,-2.71
2023-02-09T17:36:32.736Z,-2.74
2023-02-09T17:39:04.265Z,-2.78
2023-02-09T17:41:36.444Z,-2.81
2023-02-09T17:44:24.281Z,-2.86
2023-02-09T17:46:59.513Z,-2.85
2023-02-09T17:49:33.969Z,-2.87
2023-02-09T17:52:02.204Z,-2.93
2023-02-09T17:54:34.054Z,-2.95
2023-02-09T17:57:02.019Z,-3.03
2023-02-09T17:59:34.014Z,-3.07
2023-02-09T18:02:01.795Z,-3.12
2023-02-09T18:04:29.555Z,-3.18
2023-02-09T18:06:58.649Z,-3.20
2023-02-09T18:09:26.704Z,-3.23
2023-02-09T18:12:01.640Z,-3.24
2023-02-09T18:14:31.226Z,-3.26
2023-02-09T18:16:59.156Z,-3.29
2023-02-09T18:19:30.205Z,-3.26
2023-02-09T18:22:02.535Z,-3.25
2023-02-09T18:24:36.324Z,-3.31
2023-02-09T18:27:18.799Z,-3.31
2023-02-09T18:29:47.211Z,-3.33
2023-02-09T18:32:16.773Z,-3.35
2023-02-09T18:34:48.198Z,-3.35
2023-02-09T18:37:21.821Z,-3.37
2023-02-09T18:39:55.370Z,-3.39
2023-02-09T18:42:24.545Z,-3.41
2023-02-09T18:44:52.076Z,-3.40
2023-02-09T18:47:19.652Z,-3.40
2023-02-09T18:49:50.091Z,-3.40
2023-02-09T18:52:17.780Z,-3.36
2023-02-09T18:54:45.349Z,-3.37
2023-02-09T18:57:13.066Z,-3.38
2023-02-09T18:59:42.104Z,-3.37
2023-02-09T19:02:11.205Z,-3.36
2023-02-09T19:04:39.236Z,-3.34
2023-02-09T19:07:06.587Z,-3.31
2023-02-09T19:09:37.048Z,-3.29
2023-02-09T19:12:04.877Z,-3.30
2023-02-09T19:14:37.577Z,-3.30
2023-02-09T19:17:09.209Z,-3.32
2023-02-09T19:19:36.698Z,-3.31
2023-02-09T19:22:04.176Z,-3.36
2023-02-09T19:24:32.209Z,-3.36
2023-02-09T19:26:59.755Z,-3.40
2023-02-09T19:29:27.326Z,-3.41
2023-02-09T19:31:55.313Z,-3.44
2023-02-09T19:34:24.261Z,-3.46
2023-02-09T19:36:54.318Z,-3.48
2023-02-09T19:39:25.066Z,-3.50
2023-02-09T19:41:55.484Z,-3.55
2023-02-09T19:44:22.980Z,-3.57
2023-02-09T19:46:50.624Z,-3.61
2023-02-09T19:49:21.549Z,-3.63
2023-02-09T19:51:53.868Z,-3.72
2023-02-09T19:54:25.549Z,-3.77
2023-02-09T19:56:57.568Z,-3.82
2023-02-09T19:59:27.180Z,-3.79
2023-02-09T20:01:54.736Z,-3.83
2023-02-09T20:04:24.932Z,-3.87
2023-02-09T20:06:55.999Z,-3.90
2023-02-09T20:09:23.515Z,-3.94
2023-02-09T20:11:51.435Z,-3.96
2023-02-09T20:14:20.772Z,-3.93
2023-02-09T20:16:48.279Z,-3.93
2023-02-09T20:19:15.908Z,-3.94
2023-02-09T20:21:43.348Z,-3.98
2023-02-09T20:24:17.334Z,-4.04
2023-02-09T20:26:45.691Z,-4.04
2023-02-09T20:29:13.602Z,-4.07
2023-02-09T20:31:42.084Z,-4.14
2023-02-09T20:34:13.134Z,-4.22
2023-02-09T20:36:42.427Z,-4.26
2023-02-09T20:39:13.640Z,-4.32
2023-02-09T20:41:42.275Z,-4.33
2023-02-09T20:44:12.322Z,-4.38
2023-02-09T20:46:40.284Z,-4.42
2023-02-09T20:49:10.206Z,-4.44
2023-02-09T20:51:38.980Z,-4.50
2023-02-09T20:54:06.737Z,-4.54
2023-02-09T20:56:36.260Z,-4.57
2023-02-09T20:59:07.641Z,-4.64
2023-02-09T21:01:36.585Z,-4.68
2023-02-09T21:04:04.686Z,-4.71
2023-02-09T21:06:32.262Z,-4.72
2023-02-09T21:09:02.465Z,-4.76
2023-02-09T21:11:30.661Z,-4.81
2023-02-09T21:13:59.474Z,-4.86
2023-02-09T21:16:28.366Z,-4.88
2023-02-09T21:18:55.810Z,-4.90
2023-02-09T21:21:23.889Z,-4.95
2023-02-09T21:23:51.408Z,-5.01
2023-02-09T21:26:21.670Z,-5.07
2023-02-09T21:28:49.190Z,-5.15
2023-02-09T21:31:20.700Z,-5.18
2023-02-09T21:33:48.349Z,-5.18
2023-02-09T21:36:19.677Z,-5.24
2023-02-09T21:38:47.361Z,-5.25
2023-02-09T21:41:20.251Z,-5.27
2023-02-09T21:43:49.874Z,-5.28
2023-02-09T21:46:18.560Z,-5.28
2023-02-09T21:48:47.661Z,-5.31
2023-02-09T21:51:15.153Z,-5.33
2023-02-09T21:53:42.543Z,-5.32
2023-02-09T21:56:10.140Z,-5.32
2023-02-09T21:58:37.517Z,-5.33
2023-02-09T22:01:05.241Z,-5.33
2023-02-09T22:03:34.079Z,-5.38
2023-02-09T22:06:04.906Z,-5.39
2023-02-09T22:08:34.710Z,-5.40
2023-02-09T22:11:03.726Z,-5.41
2023-02-09T22:13:31.793Z,-5.42
2023-02-09T22:15:59.391Z,-5.46
2023-02-09T22:18:27.906Z,-5.52
2023-02-09T22:20:56.769Z,-5.54
2023-02-09T22:23:24.306Z,-5.58
2023-02-09T22:25:51.715Z,-5.59
2023-02-09T22:28:19.330Z,-5.61
2023-02-09T22:30:47.020Z,-5.65
2023-02-09T22:33:14.507Z,-5.68
2023-02-09T22:35:43.495Z,-5.69
2023-02-09T22:38:13.718Z,-5.70
2023-02-09T22:40:45.653Z,-5.71
2023-02-09T22:43:13.191Z,-5.78
2023-02-09T22:45:42.187Z,-5.81
2023-02-09T22:48:10.744Z,-5.82
2023-02-09T22:50:38.242Z,-5.83
2023-02-09T22:53:07.001Z,-5.86
2023-02-09T22:55:35.870Z,-5.89
2023-02-09T22:58:03.367Z,-5.90
2023-02-09T23:00:30.676Z,-5.93
2023-02-09T23:02:58.180Z,-5.98
2023-02-09T23:05:25.590Z,-6.00
2023-02-09T23:07:54.332Z,-6.07
2023-02-09T23:10:21.661Z,-6.10
2023-02-09T23:12:50.436Z,-6.10
2023-02-09T23:15:19.379Z,-6.17
2023-02-09T23:17:46.773Z,-6.14
2023-02-09T23:20:14.122Z,-6.15
2023-02-09T23:22:46.527Z,-6.19
2023-02-09T23:25:13.975Z,-6.19
2023-02-09T23:27:41.506Z,-6.20
2023-02-09T23:30:11.366Z,-6.25
2023-02-09T23:32:38.698Z,-6.28
2023-02-09T23:35:08.859Z,-6.32
2023-02-09T23:37:37.954Z,-6.30
2023-02-09T23:40:06.463Z,-6.33
2023-02-09T23:42:33.812Z,-6.35
2023-02-09T23:45:01.165Z,-6.36
2023-02-09T23:47:29.888Z,-6.36
2023-02-09T23:49:57.208Z,-6.36
2023-02-09T23:52:26.186Z,-6.38
2023-02-09T23:54:53.662Z,-6.38
2023-02-09T23:57:21.029Z,-6.43
2023-02-09T23:59:51.783Z,-6.44
